sensor_id;sensor_type;location;lat;lon;timestamp;P1;durP1;ratioP1;P2;durP2;ratioP2
6862;SDS011;3470;48.738;9.616;2023-02-08T00:01:17;10.10;;;6.70;;
6862;SDS011;3470;48.738;9.616;2023-02-08T00:03:48;12.50;;;7.07;;
6862;SDS011;3470;48.738;9.616;2023-02-08T00:06:14;10.57;;;7.10;;
6862;SDS011;3470;48.738;9.616;2023-02-08T00:08:40;10.27;;;6.43;;
6862;SDS011;3470;48.738;9.616;2023-02-08T00:11:06;11.80;;;7.07;;
6862;SDS011;3470;48.738;9.616;2023-02-08T00:13:32;13.93;;;7.23;;
6862;SDS011;3470;48.738;9.616;2023-02-08T00:15:58;10.00;;;6.87;;
6862;SDS011;3470;48.738;9.616;2023-02-08T00:18:24;10.10;;;6.37;;
6862;SDS011;3470;48.738;9.616;2023-02-08T00:20:50;9.13;;;6.63;;
6862;SDS011;3470;48.738;9.616;2023-02-08T00:23:16;10.20;;;6.90;;
6862;SDS011;3470;48.738;9.616;2023-02-08T00:25:42;10.47;;;6.57;;
6862;SDS011;3470;48.738;9.616;2023-02-08T00:28:10;10.93;;;6.73;;
6862;SDS011;3470;48.738;9.616;2023-02-08T00:30:37;10.70;;;6.87;;
6862;SDS011;3470;48.738;9.616;2023-02-08T00:33:03;10.47;;;7.20;;
6862;SDS011;3470;48.738;9.616;2023-02-08T00:35:29;10.60;;;6.87;;
6862;SDS011;3470;48.738;9.616;2023-02-08T00:37:55;9.73;;;6.43;;
6862;SDS011;3470;48.738;9.616;2023-02-08T14:14:34;11.77;;;8.80;;
6862;SDS011;3470;48.738;9.616;2023-02-08T14:17:10;10.00;;;8.25;;
6862;SDS011;3470;48.738;9.616;2023-02-08T16:05:50;12.83;;;7.73;;
6862;SDS011;3470;48.738;9.616;2023-02-08T16:08:25;9.73;;;6.87;;
6862;SDS011;3470;48.738;9.616;2023-02-08T16:10:56;11.00;;;7.00;;
6862;SDS011;3470;48.738;9.616;2023-02-08T17:53:33;16.87;;;10.23;;
6862;SDS011;3470;48.738;9.616;2023-02-08T17:56:04;15.10;;;9.97;;
6862;SDS011;3470;48.738;9.616;2023-02-08T17:58:32;19.20;;;11.17;;
6862;SDS011;3470;48.738;9.616;2023-02-08T18:00:58;18.13;;;10.83;;
6862;SDS011;3470;48.738;9.616;2023-02-08T18:03:23;18.03;;;11.13;;
6862;SDS011;3470;48.738;9.616;2023-02-08T18:05:54;18.50;;;10.33;;
6862;SDS011;3470;48.738;9.616;2023-02-08T18:08:20;17.17;;;11.17;;
6862;SDS011;3470;48.738;9.616;2023-02-08T18:10:46;15.90;;;10.77;;
6862;SDS011;3470;48.738;9.616;2023-02-08T18:13:11;15.37;;;10.47;;
6862;SDS011;3470;48.738;9.616;2023-02-08T18:15:37;16.57;;;10.63;;
6862;SDS011;3470;48.738;9.616;2023-02-08T18:18:03;17.13;;;10.90;;
6862;SDS011;3470;48.738;9.616;2023-02-08T18:20:29;18.03;;;10.10;;
6862;SDS011;3470;48.738;9.616;2023-02-08T18:22:54;18.17;;;10.83;;
6862;SDS011;3470;48.738;9.616;2023-02-08T18:25:20;18.30;;;11.37;;
6862;SDS011;3470;48.738;9.616;2023-02-08T18:27:45;18.00;;;11.70;;
6862;SDS011;3470;48.738;9.616;2023-02-08T18:30:11;18.87;;;11.40;;
6862;SDS011;3470;48.738;9.616;2023-02-08T18:32:37;18.67;;;10.93;;
6862;SDS011;3470;48.738;9.616;2023-02-08T18:35:02;19.17;;;11.03;;
6862;SDS011;3470;48.738;9.616;2023-02-08T18:37:30;22.20;;;11.57;;
6862;SDS011;3470;48.738;9.616;2023-02-08T18:39:57;18.37;;;11.17;;
6862;SDS011;3470;48.738;9.616;2023-02-08T18:42:23;17.60;;;10.70;;
6862;SDS011;3470;48.738;9.616;2023-02-08T18:44:48;16.47;;;10.07;;
6862;SDS011;3470;48.738;9.616;2023-02-08T18:47:14;18.77;;;10.93;;
6862;SDS011;3470;48.738;9.616;2023-02-08T18:49:40;16.53;;;10.80;;
6862;SDS011;3470;48.738;9.616;2023-02-08T18:52:09;17.53;;;11.03;;
6862;SDS011;3470;48.738;9.616;2023-02-08T18:54:36;20.73;;;12.13;;
6862;SDS011;3470;48.738;9.616;2023-02-08T18:57:03;19.80;;;10.33;;
6862;SDS011;3470;48.738;9.616;2023-02-08T18:59:30;18.70;;;11.90;;
6862;SDS011;3470;48.738;9.616;2023-02-08T19:01:57;18.93;;;10.33;;
6862;SDS011;3470;48.738;9.616;2023-02-08T19:04:23;20.97;;;11.07;;
6862;SDS011;3470;48.738;9.616;2023-02-08T19:06:49;20.00;;;12.10;;
6862;SDS011;3470;48.738;9.616;2023-02-08T19:09:15;16.17;;;10.90;;
6862;SDS011;3470;48.738;9.616;2023-02-08T19:11:41;18.53;;;11.03;;
6862;SDS011;3470;48.738;9.616;2023-02-08T19:14:09;18.77;;;11.73;;
6862;SDS011;3470;48.738;9.616;2023-02-08T19:16:37;17.67;;;11.37;;
6862;SDS011;3470;48.738;9.616;2023-02-08T19:19:03;17.13;;;11.13;;
6862;SDS011;3470;48.738;9.616;2023-02-08T19:21:30;20.23;;;11.50;;
6862;SDS011;3470;48.738;9.616;2023-02-08T19:23:56;21.20;;;11.57;;
6862;SDS011;3470;48.738;9.616;2023-02-08T19:26:25;20.90;;;11.67;;
6862;SDS011;3470;48.738;9.616;2023-02-08T19:28:53;25.50;;;10.97;;
6862;SDS011;3470;48.738;9.616;2023-02-08T19:31:22;23.43;;;11.53;;
6862;SDS011;3470;48.738;9.616;2023-02-08T19:33:49;21.90;;;11.73;;
6862;SDS011;3470;48.738;9.616;2023-02-08T19:36:21;20.57;;;11.17;;
6862;SDS011;3470;48.738;9.616;2023-02-08T19:38:48;18.60;;;11.37;;
6862;SDS011;3470;48.738;9.616;2023-02-08T19:41:17;18.33;;;10.37;;
6862;SDS011;3470;48.738;9.616;2023-02-08T19:43:46;17.43;;;10.57;;
6862;SDS011;3470;48.738;9.616;2023-02-08T19:46:13;17.97;;;10.47;;
6862;SDS011;3470;48.738;9.616;2023-02-08T19:48:39;15.53;;;10.27;;
6862;SDS011;3470;48.738;9.616;2023-02-08T19:51:06;19.27;;;10.73;;
6862;SDS011;3470;48.738;9.616;2023-02-08T19:53:32;19.73;;;12.10;;
6862;SDS011;3470;48.738;9.616;2023-02-08T19:56:02;16.77;;;10.43;;
6862;SDS011;3470;48.738;9.616;2023-02-08T19:58:30;18.43;;;11.53;;
6862;SDS011;3470;48.738;9.616;2023-02-08T20:00:57;20.87;;;11.07;;
6862;SDS011;3470;48.738;9.616;2023-02-08T20:03:23;18.00;;;10.70;;
6862;SDS011;3470;48.738;9.616;2023-02-08T20:05:49;19.00;;;11.63;;
6862;SDS011;3470;48.738;9.616;2023-02-08T20:08:17;18.10;;;11.50;;
6862;SDS011;3470;48.738;9.616;2023-02-08T20:10:45;17.17;;;10.57;;
6862;SDS011;3470;48.738;9.616;2023-02-08T20:13:11;18.17;;;10.83;;
6862;SDS011;3470;48.738;9.616;2023-02-08T20:15:41;18.73;;;11.10;;
6862;SDS011;3470;48.738;9.616;2023-02-08T20:18:08;21.50;;;11.47;;
6862;SDS011;3470;48.738;9.616;2023-02-08T20:20:36;18.50;;;11.00;;
6862;SDS011;3470;48.738;9.616;2023-02-08T20:23:03;16.27;;;10.70;;
6862;SDS011;3470;48.738;9.616;2023-02-08T20:25:29;17.17;;;11.57;;
6862;SDS011;3470;48.738;9.616;2023-02-08T20:27:56;19.87;;;11.00;;
6862;SDS011;3470;48.738;9.616;2023-02-08T20:30:22;19.47;;;11.17;;
6862;SDS011;3470;48.738;9.616;2023-02-08T20:32:52;20.03;;;12.37;;
6862;SDS011;3470;48.738;9.616;2023-02-08T20:35:18;19.60;;;12.00;;
6862;SDS011;3470;48.738;9.616;2023-02-08T20:37:44;20.73;;;11.80;;
6862;SDS011;3470;48.738;9.616;2023-02-08T20:40:11;22.73;;;12.57;;
6862;SDS011;3470;48.738;9.616;2023-02-08T20:42:38;18.90;;;10.90;;
6862;SDS011;3470;48.738;9.616;2023-02-08T20:45:04;20.50;;;11.77;;
6862;SDS011;3470;48.738;9.616;2023-02-08T20:47:34;15.57;;;9.37;;
6862;SDS011;3470;48.738;9.616;2023-02-08T20:50:00;20.20;;;11.57;;
6862;SDS011;3470;48.738;9.616;2023-02-08T20:52:25;19.60;;;11.53;;
6862;SDS011;3470;48.738;9.616;2023-02-08T20:54:51;17.87;;;10.77;;
6862;SDS011;3470;48.738;9.616;2023-02-08T20:57:17;19.67;;;10.97;;
6862;SDS011;3470;48.738;9.616;2023-02-08T20:59:43;21.23;;;11.50;;
6862;SDS011;3470;48.738;9.616;2023-02-08T21:02:14;18.50;;;10.33;;
6862;SDS011;3470;48.738;9.616;2023-02-08T21:04:41;18.97;;;10.30;;
6862;SDS011;3470;48.738;9.616;2023-02-08T21:07:07;21.00;;;10.77;;
6862;SDS011;3470;48.738;9.616;2023-02-08T21:09:32;17.80;;;10.93;;
6862;SDS011;3470;48.738;9.616;2023-02-08T21:11:58;24.03;;;11.43;;
6862;SDS011;3470;48.738;9.616;2023-02-08T21:14:24;17.30;;;10.33;;
6862;SDS011;3470;48.738;9.616;2023-02-08T21:16:50;15.53;;;10.17;;
6862;SDS011;3470;48.738;9.616;2023-02-08T21:19:19;18.17;;;10.43;;
6862;SDS011;3470;48.738;9.616;2023-02-08T21:21:48;17.13;;;10.40;;
6862;SDS011;3470;48.738;9.616;2023-02-08T21:24:15;18.03;;;10.97;;
6862;SDS011;3470;48.738;9.616;2023-02-08T21:26:41;18.77;;;10.50;;
6862;SDS011;3470;48.738;9.616;2023-02-08T21:29:06;21.47;;;10.93;;
6862;SDS011;3470;48.738;9.616;2023-02-08T21:31:32;19.30;;;11.60;;
6862;SDS011;3470;48.738;9.616;2023-02-08T21:34:00;16.40;;;10.20;;
6862;SDS011;3470;48.738;9.616;2023-02-08T21:36:26;18.60;;;11.10;;
6862;SDS011;3470;48.738;9.616;2023-02-08T21:38:52;17.53;;;11.07;;
6862;SDS011;3470;48.738;9.616;2023-02-08T21:43:44;20.53;;;10.83;;
6862;SDS011;3470;48.738;9.616;2023-02-08T21:46:11;17.33;;;10.47;;
6862;SDS011;3470;48.738;9.616;2023-02-08T21:48:36;17.70;;;10.03;;
6862;SDS011;3470;48.738;9.616;2023-02-08T21:51:22;16.27;;;9.70;;
6862;SDS011;3470;48.738;9.616;2023-02-08T21:54:11;18.73;;;10.60;;
6862;SDS011;3470;48.738;9.616;2023-02-08T21:56:57;16.70;;;9.77;;
6862;SDS011;3470;48.738;9.616;2023-02-08T21:59:24;20.23;;;11.23;;
6862;SDS011;3470;48.738;9.616;2023-02-08T22:01:50;16.93;;;10.53;;
6862;SDS011;3470;48.738;9.616;2023-02-08T22:04:15;22.57;;;11.03;;
6862;SDS011;3470;48.738;9.616;2023-02-08T22:06:41;17.10;;;10.00;;
6862;SDS011;3470;48.738;9.616;2023-02-08T22:09:33;16.93;;;9.97;;
6862;SDS011;3470;48.738;9.616;2023-02-08T22:11:59;18.63;;;10.70;;
6862;SDS011;3470;48.738;9.616;2023-02-08T22:14:25;21.70;;;11.37;;
6862;SDS011;3470;48.738;9.616;2023-02-08T22:16:51;18.77;;;10.70;;
6862;SDS011;3470;48.738;9.616;2023-02-08T22:19:16;20.23;;;11.03;;
6862;SDS011;3470;48.738;9.616;2023-02-08T22:21:42;18.77;;;10.43;;
6862;SDS011;3470;48.738;9.616;2023-02-08T22:24:07;17.93;;;11.20;;
6862;SDS011;3470;48.738;9.616;2023-02-08T22:26:33;17.60;;;10.37;;
6862;SDS011;3470;48.738;9.616;2023-02-08T22:28:59;15.80;;;10.73;;
6862;SDS011;3470;48.738;9.616;2023-02-08T22:31:25;15.20;;;10.10;;
6862;SDS011;3470;48.738;9.616;2023-02-08T22:33:51;16.03;;;10.17;;
6862;SDS011;3470;48.738;9.616;2023-02-08T22:36:17;18.10;;;10.23;;
6862;SDS011;3470;48.738;9.616;2023-02-08T22:38:43;18.40;;;10.47;;
6862;SDS011;3470;48.738;9.616;2023-02-08T22:41:12;16.07;;;10.73;;
6862;SDS011;3470;48.738;9.616;2023-02-08T22:43:39;18.83;;;11.17;;
6862;SDS011;3470;48.738;9.616;2023-02-08T22:46:05;19.90;;;11.07;;
6862;SDS011;3470;48.738;9.616;2023-02-08T22:48:31;17.27;;;10.30;;
6862;SDS011;3470;48.738;9.616;2023-02-08T22:50:57;18.17;;;11.37;;
6862;SDS011;3470;48.738;9.616;2023-02-08T22:53:23;21.73;;;10.57;;
6862;SDS011;3470;48.738;9.616;2023-02-08T22:55:50;16.97;;;10.90;;
6862;SDS011;3470;48.738;9.616;2023-02-08T22:58:18;20.60;;;11.57;;
6862;SDS011;3470;48.738;9.616;2023-02-08T23:00:44;19.17;;;11.47;;
6862;SDS011;3470;48.738;9.616;2023-02-08T23:03:11;17.83;;;10.97;;
6862;SDS011;3470;48.738;9.616;2023-02-08T23:05:44;18.40;;;11.93;;
6862;SDS011;3470;48.738;9.616;2023-02-08T23:08:11;17.73;;;10.87;;
6862;SDS011;3470;48.738;9.616;2023-02-08T23:10:38;16.47;;;9.83;;
6862;SDS011;3470;48.738;9.616;2023-02-08T23:13:04;20.07;;;11.20;;
6862;SDS011;3470;48.738;9.616;2023-02-08T23:15:30;17.33;;;10.77;;
6862;SDS011;3470;48.738;9.616;2023-02-08T23:17:57;20.30;;;11.07;;
6862;SDS011;3470;48.738;9.616;2023-02-08T23:20:23;16.83;;;10.67;;
6862;SDS011;3470;48.738;9.616;2023-02-08T23:22:49;17.57;;;10.03;;
6862;SDS011;3470;48.738;9.616;2023-02-08T23:25:15;18.90;;;10.50;;
6862;SDS011;3470;48.738;9.616;2023-02-08T23:27:42;20.70;;;11.33;;
6862;SDS011;3470;48.738;9.616;2023-02-08T23:30:07;18.43;;;10.33;;
6862;SDS011;3470;48.738;9.616;2023-02-08T23:32:34;18.50;;;10.30;;
6862;SDS011;3470;48.738;9.616;2023-02-08T23:34:59;17.90;;;11.00;;
6862;SDS011;3470;48.738;9.616;2023-02-08T23:37:25;18.20;;;11.07;;
6862;SDS011;3470;48.738;9.616;2023-02-08T23:39:50;17.90;;;10.67;;
6862;SDS011;3470;48.738;9.616;2023-02-08T23:42:16;23.07;;;11.87;;
6862;SDS011;3470;48.738;9.616;2023-02-08T23:47:20;18.87;;;11.07;;
6862;SDS011;3470;48.738;9.616;2023-02-08T23:49:46;22.70;;;11.90;;
6862;SDS011;3470;48.738;9.616;2023-02-08T23:52:12;20.13;;;10.87;;
6862;SDS011;3470;48.738;9.616;2023-02-08T23:54:37;17.80;;;11.17;;
6862;SDS011;3470;48.738;9.616;2023-02-08T23:57:03;22.87;;;10.87;;
6862;SDS011;3470;48.738;9.616;2023-02-08T23:59:29;19.70;;;9.90;;
